Terminal Aerodrome Forecast
Issued by NWS Wichita, KS

Home | Current Version | Previous Version | Text Only | Print | Product List | Glossary On
Versions: 1 2 3 4 5 6 7 8 9 10 11 12 13 14 15 16
000
FTUS43 KICT 301135 AAA
TAFICT
TAF AMD
KICT 301135Z 3012/3112 30015G28KT 5SM -TSRA SCT020 BKN050CB
      TEMPO 3012/3014 2SM +TSRA BKN020CB
     FM301430 11008KT P6SM SCT040 SCT100
     FM310000 12007KT P6SM SCT250=

USA.gov is the U.S. government's official web portal to all federal, state and local government web resources and services.